Allenville, Missouri
Current Conditions -  °F | °C
As of 7:48 PM on Wednesday 26 Nov 2014 (Local Time) from KCGI Reporting Station
Overcast Overcast  
Wind Chill: -2°   Ceiling: 6000
Heat Index:   Visibility: 10mi
Dew Point:   Wind: 8mph
Humidity: 93%   Direction: 270°W
Pressure: 30.08"   Gusts: NA
Location:  37.1651°N, 89.623°W
Report Text: KCGI 270148Z AUTO 27007KT 10SM FEW025 BKN060 OVC100 02/01 A3008 RMK AO2 TSNO
Loading
Personal Weather Stations






























Interactive Weather Map New forecast layout! Learn more

10-Day Weather Forecast

Advertisements
Track Severe Weather on mobile